Time;durP1;ratioP1;P1;durP2;ratioP2;P2;SDS_P1;SDS_P2;PMS_P1;PMS_P2;Temp;Humidity;BMP_temperature;BMP_pressure;BME280_temperature;BME280_humidity;BME280_pressure;Samples;Min_cycle;Max_cycle;Signal;HPM_P1;HPM_P2
2021/10/23 11:21:22;;;;;;;10.02;2.45;;;12.10;99.90;;;;;;12101833;27;20394;-49
2021/10/23 11:27:23;;;;;;;8.95;2.10;;;12.90;99.90;;;;;;12049940;28;20033;-47
2021/10/23 11:33:15;;;;;;;7.07;2.60;;;14.00;99.90;;;;;;12064000;28;20044;-45
2021/10/23 11:39:04;;;;;;;9.07;3.10;;;14.50;99.90;;;;;;12060917;28;20419;-45
2021/10/23 11:44:51;;;;;;;8.52;2.63;;;14.80;99.90;;;;;;12052845;28;20045;-47
2021/10/23 11:50:40;;;;;;;8.00;2.80;;;15.00;99.90;;;;;;12025029;28;20063;-47
2021/10/23 11:56:28;;;;;;;9.63;2.80;;;15.20;99.90;;;;;;12007625;28;20048;-50
2021/10/23 12:02:15;;;;;;;8.38;2.80;;;15.20;99.90;;;;;;12058134;28;20059;-46
2021/10/23 12:08:24;;;;;;;5.90;2.67;;;15.20;99.90;;;;;;12012227;28;20520;-48
2021/10/23 12:14:14;;;;;;;7.32;2.22;;;15.20;99.90;;;;;;12004241;28;20423;-47
2021/10/23 12:20:15;;;;;;;5.30;2.25;;;15.10;99.90;;;;;;12012314;28;20049;-50
2021/10/23 12:26:06;;;;;;;8.68;2.85;;;15.00;99.90;;;;;;12011080;28;20044;-46
2021/10/23 12:31:59;;;;;;;8.50;2.80;;;15.10;99.90;;;;;;11985322;28;20044;-50
2021/10/23 12:37:51;;;;;;;5.85;2.40;;;15.20;99.90;;;;;;12022852;28;20060;-47
2021/10/23 12:43:38;;;;;;;4.82;2.35;;;15.70;99.90;;;;;;11977082;28;20143;-47
2021/10/23 12:49:26;;;;;;;8.68;2.28;;;16.10;99.90;;;;;;12014953;28;20060;-48
2021/10/23 12:55:13;;;;;;;7.85;2.10;;;16.50;99.90;;;;;;12027733;28;20424;-50
2021/10/23 13:01:00;;;;;;;9.63;4.63;;;16.80;99.90;;;;;;12023504;28;20048;-47
2021/10/23 13:06:49;;;;;;;4.03;2.47;;;16.90;99.90;;;;;;12016140;28;20521;-49
2021/10/23 13:12:37;;;;;;;7.65;2.42;;;16.70;99.90;;;;;;12022231;28;20048;-48
2021/10/23 13:18:24;;;;;;;7.65;2.90;;;16.40;99.90;;;;;;12015675;28;20036;-49
2021/10/23 13:24:13;;;;;;;6.75;2.30;;;16.20;99.90;;;;;;12021556;28;20771;-48
2021/10/23 13:30:00;;;;;;;7.47;2.50;;;16.00;99.90;;;;;;12018154;28;20455;-47
2021/10/23 13:35:47;;;;;;;4.65;2.05;;;15.90;99.90;;;;;;12015104;28;20041;-48
2021/10/23 13:41:36;;;;;;;6.88;1.75;;;15.90;99.90;;;;;;12041226;28;20057;-49
2021/10/23 13:47:22;;;;;;;5.47;1.70;;;15.90;99.90;;;;;;12074385;28;20516;-51
2021/10/23 13:53:09;;;;;;;3.28;1.67;;;16.40;99.90;;;;;;12087657;28;20044;-48
2021/10/23 13:58:57;;;;;;;5.50;1.88;;;16.70;99.90;;;;;;12090095;28;20081;-50
2021/10/23 14:04:44;;;;;;;24.35;7.75;;;16.60;99.90;;;;;;12087952;28;20059;-48
2021/10/23 14:10:31;;;;;;;12.65;4.38;;;16.40;99.90;;;;;;12085383;28;20132;-46
2021/10/23 14:16:20;;;;;;;6.07;2.40;;;16.20;99.90;;;;;;12036745;28;20056;-51
2021/10/23 14:22:11;;;;;;;5.55;2.10;;;16.00;99.90;;;;;;12024817;28;20854;-48
2021/10/23 14:28:00;;;;;;;9.00;2.05;;;15.90;99.90;;;;;;12037954;28;20296;-47
2021/10/23 14:34:11;;;;;;;8.50;3.72;;;15.70;99.90;;;;;;12045313;28;20063;-47
2021/10/23 14:39:58;;;;;;;9.23;2.53;;;15.60;99.90;;;;;;11998893;28;20049;-48
2021/10/23 14:45:45;;;;;;;7.68;2.65;;;15.60;99.90;;;;;;12023629;28;20598;-50
2021/10/23 14:51:33;;;;;;;6.15;2.58;;;15.50;99.90;;;;;;12015002;28;20433;-48
2021/10/23 15:03:23;;;;;;;9.07;3.47;;;15.50;99.90;;;;;;12079300;28;20052;-47
2021/10/23 15:09:28;;;;;;;8.98;4.20;;;15.60;99.90;;;;;;12014992;28;20079;-47
2021/10/23 15:15:19;;;;;;;8.23;4.43;;;15.60;99.90;;;;;;11905829;28;20052;-50
2021/10/23 15:21:09;;;;;;;9.48;3.55;;;15.50;99.90;;;;;;11966644;28;20209;-48
2021/10/23 15:26:57;;;;;;;6.03;2.60;;;15.50;99.90;;;;;;11975783;28;20118;-49
2021/10/23 15:32:53;;;;;;;8.98;3.10;;;15.40;99.90;;;;;;11995254;28;20447;-46
2021/10/23 15:44:43;;;;;;;7.80;2.80;;;15.50;99.90;;;;;;11940833;28;20068;-47
2021/10/23 15:50:30;;;;;;;10.55;3.10;;;15.50;99.90;;;;;;11986095;28;20099;-48
2021/10/23 15:56:17;;;;;;;6.97;3.38;;;15.50;99.90;;;;;;12032499;28;20032;-51
2021/10/23 16:02:06;;;;;;;6.88;3.28;;;15.50;99.90;;;;;;12057248;28;20045;-47
2021/10/23 16:07:54;;;;;;;10.57;2.92;;;15.50;99.90;;;;;;12092887;28;20527;-48
2021/10/23 16:13:41;;;;;;;6.95;2.50;;;15.40;99.90;;;;;;12009564;28;20043;-45
2021/10/23 16:19:29;;;;;;;6.50;3.63;;;15.30;99.90;;;;;;12024564;28;20632;-45
2021/10/23 16:25:16;;;;;;;14.30;4.28;;;15.20;99.90;;;;;;11999564;28;20040;-47
2021/10/23 16:31:03;;;;;;;11.57;4.85;;;15.00;99.90;;;;;;11995482;28;20434;-48
2021/10/23 16:36:51;;;;;;;8.48;3.47;;;14.80;99.90;;;;;;11995955;28;21181;-46
2021/10/23 16:42:38;;;;;;;9.82;2.92;;;14.60;99.90;;;;;;12003988;28;20245;-46
2021/10/23 16:48:25;;;;;;;11.45;2.80;;;14.30;99.90;;;;;;12002043;28;20052;-48
2021/10/23 16:54:13;;;;;;;13.45;3.53;;;14.00;99.90;;;;;;12001614;28;20055;-50
2021/10/23 17:00:00;;;;;;;10.73;3.03;;;13.80;99.90;;;;;;12021739;28;20102;-49
2021/10/23 17:05:47;;;;;;;9.38;3.30;;;13.70;99.90;;;;;;11990368;28;20056;-50
2021/10/23 17:11:35;;;;;;;10.48;3.90;;;13.70;99.90;;;;;;12047652;28;20544;-48
2021/10/23 17:17:22;;;;;;;9.57;3.53;;;13.60;99.90;;;;;;12000886;28;20057;-47
2021/10/23 17:23:16;;;;;;;13.10;2.95;;;13.40;99.90;;;;;;11994671;28;20056;-49
2021/10/23 17:29:05;;;;;;;6.97;2.85;;;13.40;99.90;;;;;;12033811;28;20054;-49
2021/10/23 17:34:53;;;;;;;6.53;3.38;;;13.10;99.90;;;;;;12008827;28;20570;-52
